CheckWX is a tool to help pilots better visualize weather data.  It is not intended as a substitute for an official pre-flight weather briefing.

22:09:17 UTC

KSEZ TAF
Sedona Airport
Sedona, Arizona, USA
KSEZ 072339Z 0800/0824 23014G22KT P6SM SKC FM080600 VRB04KT P6SM FEW090 FM081900 20014G22KT P6SM SKC

Jul-8@
00:00 UTC

Jul-8 @ 00:00 UTC

Jul-8@
06:00 UTC

Jul-8 @ 06:00 UTC

TAF KSEZ 072339Z 0800/0824 23014G22KT P6SM SKC

Expired

Wind
  • 230° at 14 KTS
  • {Gusting to 22 KTS
Cloud Levels
  • Clear skies

Jul-8@
06:00 UTC

Jul-8 @ 06:00 UTC

Jul-8@
19:00 UTC

Jul-8 @ 19:00 UTC

FM080600 VRB04KT P6SM FEW090

Expired

Wind
  • Variable at 4 KTS
Cloud Levels
  • Few at 9,000' AGL

Jul-8@
19:00 UTC

Jul-8 @ 19:00 UTC

Jul-9@
00:00 UTC

Jul-9 @ 00:00 UTC

FM081900 20014G22KT P6SM SKC

From

From Standard forecast or significant change

Wind
  • 200° at 14 KTS
  • {Gusting to 22 KTS
Cloud Levels
  • Clear skies